Time;durP1;ratioP1;P1;durP2;ratioP2;P2;SDS_P1;SDS_P2;PMS_P1;PMS_P2;Temp;Humidity;BMP_temperature;BMP_pressure;BME280_temperature;BME280_humidity;BME280_pressure;Samples;Min_cycle;Max_cycle;Signal;HPM_P1;HPM_P2
2022/09/05 00:02:01;;;;;;;2.83;2.63;;;25.40;55.20;26.40;101124.00;;;;5049861;28;20203;-39
2022/09/05 00:04:35;;;;;;;2.78;2.58;;;25.40;55.40;26.40;101127.00;;;;5050704;28;20647;-40
2022/09/05 00:07:44;;;;;;;2.67;2.47;;;25.40;55.40;26.40;101128.00;;;;5049870;28;20162;-39
2022/09/05 00:10:48;;;;;;;3.35;2.63;;;25.40;55.50;26.30;101120.00;;;;5017894;28;20329;-38
2022/09/05 00:13:20;;;;;;;2.92;2.70;;;25.30;55.40;26.30;101129.00;;;;5048615;28;20176;-38
2022/09/05 00:16:25;;;;;;;2.78;2.58;;;25.30;55.50;26.30;101133.00;;;;5032428;28;20236;-39
2022/09/05 00:19:20;;;;;;;2.78;2.50;;;25.30;55.40;26.30;101137.00;;;;5048343;28;20257;-39
2022/09/05 00:22:07;;;;;;;2.65;2.33;;;25.20;55.40;26.30;101129.00;;;;5042484;28;20293;-39
2022/09/05 00:25:08;;;;;;;2.40;2.20;;;25.20;55.40;26.20;101127.00;;;;5047758;28;20162;-39
2022/09/05 00:28:18;;;;;;;2.38;2.20;;;25.10;55.20;26.20;101101.00;;;;5048333;28;20150;-40
2022/09/05 00:31:12;;;;;;;3.55;2.28;;;25.00;55.20;26.20;101131.00;;;;4996245;28;20253;-39
2022/09/05 00:34:06;;;;;;;2.33;2.13;;;25.00;55.20;26.20;101121.00;;;;5056451;28;20566;-39
2022/09/05 00:36:54;;;;;;;2.40;2.20;;;25.00;55.30;26.10;101124.00;;;;5058758;28;20147;-39
2022/09/05 00:39:27;;;;;;;2.50;2.30;;;25.00;55.30;26.10;101124.00;;;;5054774;28;20158;-40
2022/09/05 00:41:57;;;;;;;2.72;2.53;;;25.00;55.40;26.10;101129.00;;;;5048186;28;20194;-38
2022/09/05 00:44:27;;;;;;;2.85;2.20;;;25.00;55.40;26.10;101126.00;;;;5048593;28;20174;-39
2022/09/05 00:47:11;;;;;;;2.30;2.10;;;25.00;55.30;26.10;101122.00;;;;5047990;28;20176;-39
2022/09/05 00:49:40;;;;;;;2.35;2.15;;;25.00;55.20;26.10;101101.00;;;;5048373;28;20168;-40
2022/09/05 00:52:18;;;;;;;2.50;2.30;;;24.90;55.20;26.00;101121.00;;;;5048243;28;20197;-39
2022/09/05 00:55:12;;;;;;;2.45;2.25;;;24.90;55.20;26.00;101123.00;;;;5048867;28;20249;-40
2022/09/05 00:58:19;;;;;;;2.60;2.40;;;24.80;55.20;25.90;101113.00;;;;5049359;28;20177;-39
2022/09/05 01:00:51;;;;;;;2.63;2.42;;;24.70;55.20;25.90;101121.00;;;;5048117;28;20532;-38
2022/09/05 01:04:01;;;;;;;2.58;2.38;;;24.70;55.20;25.90;101113.00;;;;5048973;28;20190;-39
2022/09/05 01:07:18;;;;;;;2.20;2.10;;;24.70;55.30;25.80;101120.00;;;;5019562;28;20265;-39
2022/09/05 01:10:19;;;;;;;2.78;2.30;;;24.70;55.20;25.80;101115.00;;;;4998324;28;20234;-40
2022/09/05 01:13:15;;;;;;;2.45;2.10;;;24.70;55.30;25.80;101118.00;;;;5048354;28;20177;-38
2022/09/05 01:15:52;;;;;;;2.50;2.30;;;24.70;55.20;25.80;101119.00;;;;5046979;28;20208;-39
2022/09/05 01:18:49;;;;;;;2.53;2.33;;;24.70;55.30;25.80;101118.00;;;;5046974;28;20844;-38
2022/09/05 01:21:33;;;;;;;2.40;2.20;;;24.70;55.20;25.80;101121.00;;;;5016412;28;20193;-39
2022/09/05 01:24:18;;;;;;;2.95;2.55;;;24.80;55.30;25.80;101121.00;;;;5046688;28;20223;-39
2022/09/05 01:27:28;;;;;;;2.72;2.50;;;24.70;55.30;25.80;101121.00;;;;5032078;28;20166;-40
2022/09/05 01:30:10;;;;;;;3.80;2.40;;;24.80;55.40;25.80;101123.00;;;;5058351;28;20213;-39
2022/09/05 01:32:53;;;;;;;3.72;2.75;;;24.80;55.40;25.50;101126.00;;;;5030731;28;20268;-39
2022/09/05 01:35:42;;;;;;;2.83;2.63;;;24.80;55.50;25.70;101122.00;;;;5046261;28;20170;-39
2022/09/05 01:38:41;;;;;;;2.70;2.50;;;24.70;55.50;25.70;101117.00;;;;5048367;28;20392;-39
2022/09/05 01:41:22;;;;;;;2.70;2.50;;;24.70;55.50;25.70;101124.00;;;;5050214;28;20209;-39
2022/09/05 01:44:06;;;;;;;3.72;2.70;;;24.70;55.40;25.70;101113.00;;;;5049242;28;20171;-40
2022/09/05 01:47:02;;;;;;;3.13;2.60;;;24.70;55.60;25.60;101119.00;;;;5047250;28;20647;-39
2022/09/05 01:50:11;;;;;;;2.92;2.63;;;24.70;55.50;25.60;101128.00;;;;5048988;28;20646;-39
2022/09/05 01:53:09;;;;;;;2.90;2.70;;;24.70;55.50;25.60;101121.00;;;;5037336;28;20184;-40
2022/09/05 01:56:19;;;;;;;2.83;2.60;;;24.80;55.50;25.60;101120.00;;;;5047600;28;20311;-40
2022/09/05 01:59:27;;;;;;;3.15;2.83;;;24.70;55.40;25.60;101115.00;;;;5014405;28;20214;-39
2022/09/05 02:02:09;;;;;;;2.80;2.60;;;24.80;55.40;25.50;101120.00;;;;5037222;28;20206;-39
2022/09/05 02:05:10;;;;;;;2.67;2.47;;;24.80;55.30;25.50;101121.00;;;;5047004;28;20257;-40
2022/09/05 02:07:57;;;;;;;2.90;2.70;;;24.70;55.30;25.50;101121.00;;;;5044806;28;20254;-39
2022/09/05 02:11:09;;;;;;;2.80;2.60;;;24.80;55.50;25.50;101132.00;;;;5047874;28;20617;-39
2022/09/05 02:13:35;;;;;;;3.00;2.80;;;24.70;55.40;25.40;101122.00;;;;5047425;28;20171;-38
2022/09/05 02:16:34;;;;;;;2.90;2.60;;;24.70;55.30;25.50;101124.00;;;;5047310;28;20185;-39
2022/09/05 02:19:08;;;;;;;4.18;2.70;;;24.70;55.50;25.50;101128.00;;;;5047431;28;20173;-39
2022/09/05 02:21:40;;;;;;;2.90;2.70;;;24.70;55.40;25.50;101124.00;;;;5047238;28;20191;-39
2022/09/05 02:24:36;;;;;;;2.70;2.50;;;24.70;55.50;25.50;101117.00;;;;5047564;28;20699;-39
2022/09/05 02:27:08;;;;;;;2.88;2.55;;;24.70;55.40;25.40;101128.00;;;;5046994;28;20163;-40
2022/09/05 02:30:14;;;;;;;2.90;2.70;;;24.70;55.60;25.40;101125.00;;;;5047421;28;20169;-40
2022/09/05 02:33:01;;;;;;;2.80;2.60;;;24.70;55.60;25.40;101120.00;;;;5032896;28;20170;-39
2022/09/05 02:36:05;;;;;;;2.80;2.60;;;24.60;55.60;25.30;101125.00;;;;5047190;28;20166;-39
2022/09/05 02:39:14;;;;;;;2.90;2.70;;;24.60;55.70;25.30;101134.00;;;;5046234;28;20173;-39
2022/09/05 02:41:44;;;;;;;2.88;2.53;;;24.40;56.00;25.30;101123.00;;;;5046516;28;20209;-39
2022/09/05 02:44:37;;;;;;;2.67;2.42;;;24.40;56.00;25.30;101125.00;;;;5029905;28;20177;-40
2022/09/05 02:47:14;;;;;;;3.33;2.80;;;24.40;55.90;25.30;101126.00;;;;5035502;28;20154;-40
2022/09/05 02:50:13;;;;;;;2.77;2.53;;;24.40;56.00;25.20;101127.00;;;;5055655;28;20223;-39
2022/09/05 02:52:39;;;;;;;2.85;2.60;;;24.40;56.00;25.20;101122.00;;;;5057226;28;20232;-40
2022/09/05 02:55:19;;;;;;;3.23;2.93;;;24.30;55.90;25.20;101119.00;;;;5033986;28;20170;-39
2022/09/05 02:58:00;;;;;;;2.80;2.60;;;24.40;56.00;25.10;101126.00;;;;5034458;28;20173;-39
2022/09/05 03:00:33;;;;;;;2.90;2.70;;;24.30;56.00;25.10;101127.00;;;;5035177;28;20194;-39
2022/09/05 03:03:18;;;;;;;2.67;2.47;;;24.30;56.10;25.20;101125.00;;;;5018474;28;20191;-39
2022/09/05 03:06:12;;;;;;;2.70;2.50;;;24.30;56.00;25.10;101120.00;;;;5049546;28;20205;-39
2022/09/05 03:09:19;;;;;;;2.90;2.70;;;24.30;56.20;25.10;101134.00;;;;5049631;28;20193;-40
2022/09/05 03:12:18;;;;;;;2.70;2.50;;;24.20;56.20;25.10;101127.00;;;;5035280;28;20522;-38
2022/09/05 03:15:15;;;;;;;2.90;2.70;;;24.10;56.50;25.10;101132.00;;;;5049596;28;20700;-38
2022/09/05 03:17:59;;;;;;;2.93;2.70;;;24.10;56.50;25.00;101139.00;;;;5050509;28;20173;-39
2022/09/05 03:20:37;;;;;;;2.90;2.60;;;24.10;56.50;25.00;101132.00;;;;5071022;28;20333;-39
2022/09/05 03:23:49;;;;;;;2.97;2.60;;;24.10;56.50;25.00;101130.00;;;;5050727;28;20182;-40
2022/09/05 03:26:45;;;;;;;2.90;2.70;;;24.10;56.50;25.00;101119.00;;;;5050574;28;20170;-38
2022/09/05 03:29:57;;;;;;;2.70;2.50;;;24.10;56.40;25.00;101132.00;;;;5050368;28;20602;-38
2022/09/05 03:32:41;;;;;;;2.57;2.37;;;24.10;56.60;24.90;101120.00;;;;5022275;28;20232;-38
2022/09/05 03:35:54;;;;;;;2.93;2.63;;;24.10;56.60;24.90;101127.00;;;;5050468;28;20158;-40
2022/09/05 03:38:34;;;;;;;5.75;2.70;;;24.10;56.70;24.90;101130.00;;;;5050312;28;20186;-39
2022/09/05 03:41:24;;;;;;;2.93;2.73;;;24.10;56.60;24.90;101141.00;;;;5050328;28;20296;-39
2022/09/05 03:44:41;;;;;;;2.77;2.57;;;24.00;56.80;24.90;101133.00;;;;5050948;28;20166;-39
2022/09/05 03:47:33;;;;;;;3.07;2.80;;;24.00;56.70;24.80;101132.00;;;;5013444;28;20191;-40
2022/09/05 03:50:43;;;;;;;2.87;2.67;;;24.00;56.70;24.80;101135.00;;;;5060709;28;20198;-39
2022/09/05 03:53:48;;;;;;;3.27;2.73;;;24.00;56.60;24.80;101134.00;;;;5053677;28;20150;-40
2022/09/05 03:56:50;;;;;;;2.90;2.63;;;24.00;56.60;24.80;101129.00;;;;5050326;28;20173;-39
2022/09/05 03:59:46;;;;;;;3.00;2.70;;;24.00;56.70;24.80;101131.00;;;;5049769;28;20362;-39
2022/09/05 04:02:16;;;;;;;3.23;2.50;;;24.00;57.30;24.80;101120.00;;;;5050001;28;20282;-39
2022/09/05 04:04:43;;;;;;;2.87;2.63;;;24.00;56.60;24.80;101129.00;;;;5016140;28;20170;-39
2022/09/05 04:07:20;;;;;;;2.80;2.60;;;23.90;56.70;24.80;101123.00;;;;5049301;28;20738;-39
2022/09/05 04:09:57;;;;;;;2.70;2.50;;;23.90;56.60;24.80;101120.00;;;;5041856;28;20209;-40
2022/09/05 04:12:32;;;;;;;2.73;2.53;;;23.90;56.70;24.80;101129.00;;;;5047845;28;20685;-39
2022/09/05 04:15:16;;;;;;;2.90;2.70;;;23.90;56.90;24.80;101130.00;;;;5049291;28;20212;-39
2022/09/05 04:17:45;;;;;;;2.70;2.50;;;23.90;56.90;24.70;101124.00;;;;5048449;28;20260;-39
2022/09/05 04:20:37;;;;;;;2.70;2.50;;;23.90;56.80;24.70;101128.00;;;;5048804;28;20190;-39
2022/09/05 04:23:26;;;;;;;2.90;2.70;;;23.90;56.70;24.70;101125.00;;;;5048551;28;20256;-40
2022/09/05 04:26:26;;;;;;;2.83;2.63;;;23.90;56.80;24.70;101134.00;;;;5048335;28;20191;-39
2022/09/05 04:28:54;;;;;;;4.13;2.60;;;23.90;56.70;24.70;101123.00;;;;5049374;28;20260;-39
2022/09/05 04:32:13;;;;;;;3.77;2.67;;;23.90;56.60;24.70;101142.00;;;;5047180;28;20221;-39
2022/09/05 04:35:19;;;;;;;2.80;2.53;;;23.90;56.80;24.70;101135.00;;;;4986709;28;20556;-40
2022/09/05 04:38:06;;;;;;;3.10;2.80;;;23.90;56.90;24.60;101138.00;;;;4973385;28;20165;-40
2022/09/05 04:40:46;;;;;;;3.63;2.50;;;23.80;57.20;24.60;101138.00;;;;5045868;28;20198;-39
2022/09/05 04:43:33;;;;;;;3.30;2.50;;;23.80;57.30;24.60;101136.00;;;;5047738;28;20198;-39
2022/09/05 04:46:17;;;;;;;2.80;2.60;;;23.80;57.10;24.60;101127.00;;;;5048417;28;20220;-39
2022/09/05 04:49:19;;;;;;;3.00;2.60;;;23.80;57.10;24.60;101137.00;;;;5048443;28;20328;-39
2022/09/05 04:52:28;;;;;;;2.70;2.50;;;23.80;57.40;24.60;101148.00;;;;5038571;28;20196;-40
2022/09/05 04:55:16;;;;;;;2.80;2.60;;;23.70;57.20;24.50;101143.00;;;;5060031;28;20658;-40
2022/09/05 04:58:00;;;;;;;3.30;2.77;;;23.70;57.40;24.50;101152.00;;;;5067922;28;20181;-39
2022/09/05 05:00:34;;;;;;;3.00;2.70;;;23.70;57.50;24.50;101152.00;;;;5069063;28;20197;-39
2022/09/05 05:03:02;;;;;;;3.90;2.70;;;23.70;57.50;24.50;101159.00;;;;5069107;28;20221;-39
2022/09/05 05:05:47;;;;;;;3.00;2.70;;;23.70;58.20;24.50;101159.00;;;;5066162;28;20170;-39
2022/09/05 05:08:23;;;;;;;2.93;2.60;;;23.60;57.20;24.50;101147.00;;;;5066966;28;20160;-39
2022/09/05 05:11:03;;;;;;;2.67;2.47;;;23.60;57.30;24.50;101159.00;;;;5076527;28;20485;-39
2022/09/05 05:13:42;;;;;;;2.77;2.43;;;23.60;57.30;24.50;101164.00;;;;5067378;28;20491;-39
2022/09/05 05:16:17;;;;;;;2.80;2.60;;;23.60;57.40;24.50;101111.00;;;;5068095;28;20519;-39
2022/09/05 05:19:14;;;;;;;2.70;2.50;;;23.60;57.50;24.50;101168.00;;;;5066680;28;20531;-39
2022/09/05 05:21:54;;;;;;;3.00;2.70;;;23.60;57.20;24.40;101163.00;;;;5070723;28;20848;-39
2022/09/05 05:24:34;;;;;;;2.90;2.60;;;23.60;57.50;24.40;101170.00;;;;5068035;28;20188;-39
2022/09/05 05:27:14;;;;;;;2.87;2.60;;;23.60;57.40;24.40;101178.00;;;;5066305;28;20271;-39
2022/09/05 05:30:07;;;;;;;2.90;2.60;;;23.60;57.40;24.40;101169.00;;;;5067314;28;20227;-39
2022/09/05 05:32:45;;;;;;;3.10;2.80;;;23.60;57.20;24.40;101166.00;;;;5068813;28;20181;-39
2022/09/05 05:35:29;;;;;;;2.70;2.47;;;23.60;57.40;24.40;101166.00;;;;5066536;28;20173;-39
2022/09/05 05:38:16;;;;;;;2.80;2.50;;;23.60;57.40;24.40;101171.00;;;;5066287;28;20644;-39
2022/09/05 05:41:23;;;;;;;3.33;2.60;;;23.50;57.40;24.40;101164.00;;;;5067657;28;20303;-40
2022/09/05 05:43:48;;;;;;;3.03;2.60;;;23.50;57.60;24.30;101162.00;;;;5068583;28;20166;-39
2022/09/05 05:46:33;;;;;;;4.10;2.70;;;23.50;57.40;24.30;101165.00;;;;5066444;28;20170;-39
2022/09/05 05:49:33;;;;;;;3.77;2.63;;;23.50;57.50;24.30;101188.00;;;;5066802;28;20165;-39
2022/09/05 05:52:26;;;;;;;3.53;3.10;;;23.50;57.50;24.30;101173.00;;;;5067525;28;20253;-38
2022/09/05 05:55:48;;;;;;;2.80;2.60;;;23.50;57.50;24.30;101171.00;;;;5065872;28;20181;-39
2022/09/05 05:58:53;;;;;;;3.40;2.67;;;23.50;57.30;24.30;101175.00;;;;5067399;28;20174;-39
2022/09/05 06:01:56;;;;;;;2.77;2.50;;;23.50;57.30;24.30;101175.00;;;;5065723;28;20715;-40
2022/09/05 06:04:45;;;;;;;3.67;2.80;;;23.50;57.10;24.20;101177.00;;;;5067111;28;20188;-39
2022/09/05 06:07:51;;;;;;;2.80;2.60;;;23.50;57.10;24.20;101178.00;;;;5067080;28;20241;-39
2022/09/05 06:11:06;;;;;;;2.50;2.30;;;23.50;57.00;24.20;101178.00;;;;5066398;28;20205;-40
2022/09/05 06:13:57;;;;;;;3.33;2.70;;;23.50;57.20;24.20;101192.00;;;;5070362;28;20174;-40
2022/09/05 06:17:16;;;;;;;2.83;2.60;;;23.50;57.20;24.20;101185.00;;;;5071996;28;20200;-39
2022/09/05 06:20:16;;;;;;;2.80;2.60;;;23.50;56.80;24.20;101179.00;;;;5049810;28;20197;-39
2022/09/05 06:23:12;;;;;;;2.77;2.57;;;23.50;57.00;24.20;101186.00;;;;5067082;28;20224;-40
2022/09/05 06:26:06;;;;;;;2.97;2.60;;;23.50;57.40;24.20;101178.00;;;;5065678;28;20310;-40
2022/09/05 06:29:11;;;;;;;2.90;2.60;;;23.50;57.30;24.20;101176.00;;;;5066704;28;20146;-39
2022/09/05 06:31:57;;;;;;;2.77;2.57;;;23.50;57.30;24.20;101181.00;;;;5067582;28;20185;-40
2022/09/05 06:35:16;;;;;;;3.07;2.63;;;23.50;57.00;24.20;101172.00;;;;5065746;28;20154;-40
2022/09/05 06:38:20;;;;;;;4.30;2.50;;;23.50;57.30;24.20;101179.00;;;;5004242;28;20175;-39
2022/09/05 06:41:12;;;;;;;2.97;2.60;;;23.50;57.00;24.10;101175.00;;;;4974543;28;20291;-39
2022/09/05 06:44:31;;;;;;;2.97;2.60;;;23.50;57.40;24.20;101184.00;;;;5048724;28;20734;-39
2022/09/05 06:46:58;;;;;;;3.63;2.63;;;23.50;57.20;24.10;101182.00;;;;5067928;28;20244;-40
2022/09/05 06:50:04;;;;;;;5.03;2.90;;;23.40;57.30;24.20;101190.00;;;;5065396;28;20587;-39
2022/09/05 06:52:33;;;;;;;4.80;2.97;;;23.40;57.90;24.10;101181.00;;;;5067474;28;20180;-39
2022/09/05 06:55:13;;;;;;;9.30;3.00;;;23.40;57.90;24.10;101188.00;;;;5012530;28;20173;-41
2022/09/05 06:58:20;;;;;;;5.23;3.27;;;23.40;59.10;24.20;101181.00;;;;5065220;28;20169;-42
2022/09/05 07:00:56;;;;;;;9.03;3.50;;;23.40;58.50;24.10;101182.00;;;;5032246;28;20198;-42
2022/09/05 07:03:47;;;;;;;9.73;3.17;;;23.40;58.60;24.20;101191.00;;;;5013011;28;20197;-43
2022/09/05 07:06:56;;;;;;;4.70;3.40;;;23.50;58.20;24.20;101190.00;;;;5031513;28;20335;-41
2022/09/05 07:09:32;;;;;;;6.00;3.00;;;23.60;58.10;24.20;101178.00;;;;5068901;28;20198;-43
2022/09/05 07:12:27;;;;;;;5.33;3.40;;;23.60;58.00;24.20;101188.00;;;;5049854;28;20182;-41
2022/09/05 07:15:33;;;;;;;7.30;2.90;;;23.60;58.00;24.20;101183.00;;;;5066423;28;20162;-42
2022/09/05 07:18:21;;;;;;;7.10;3.00;;;23.60;58.10;24.20;101182.00;;;;5066172;28;20181;-42
2022/09/05 07:20:51;;;;;;;5.17;3.07;;;23.60;58.00;24.20;101185.00;;;;5066523;28;20658;-42
2022/09/05 07:23:50;;;;;;;5.57;3.17;;;23.60;58.00;24.30;101180.00;;;;5048125;28;20202;-43
2022/09/05 07:26:15;;;;;;;4.07;3.00;;;23.60;57.90;24.30;101191.00;;;;5066055;28;20201;-43
2022/09/05 07:28:42;;;;;;;3.33;2.70;;;23.60;57.90;24.30;101190.00;;;;5066223;28;20504;-43
2022/09/05 07:31:22;;;;;;;2.97;2.77;;;23.60;57.80;24.30;101196.00;;;;5048810;28;20277;-42
2022/09/05 07:33:48;;;;;;;4.10;2.83;;;23.60;57.80;24.40;101195.00;;;;5048102;28;20200;-42
2022/09/05 07:36:18;;;;;;;2.90;2.50;;;23.60;57.80;24.40;101196.00;;;;5049167;28;20179;-47
2022/09/05 07:38:43;;;;;;;3.87;2.70;;;23.60;57.80;24.40;101198.00;;;;5048379;28;20358;-44
2022/09/05 07:41:40;;;;;;;2.83;2.37;;;23.60;57.90;24.40;101196.00;;;;5047802;28;20191;-41
2022/09/05 07:44:20;;;;;;;3.00;2.70;;;23.60;57.80;24.40;101194.00;;;;5049154;28;20372;-41
2022/09/05 07:46:47;;;;;;;3.13;2.60;;;23.60;58.00;24.40;101197.00;;;;5049113;28;20147;-42
2022/09/05 07:49:19;;;;;;;3.77;2.70;;;23.60;58.00;24.40;101193.00;;;;5048798;28;20171;-42
2022/09/05 07:51:53;;;;;;;2.63;2.43;;;23.60;57.90;24.50;101198.00;;;;5049116;28;20159;-43
2022/09/05 07:54:34;;;;;;;3.17;2.40;;;23.70;58.10;24.50;101201.00;;;;5048946;28;20151;-43
2022/09/05 07:57:05;;;;;;;2.60;2.40;;;23.70;58.20;24.50;101216.00;;;;5048630;28;20192;-41
2022/09/05 07:59:36;;;;;;;3.27;2.67;;;23.70;58.20;24.50;101197.00;;;;5048653;28;20154;-42
2022/09/05 08:02:02;;;;;;;2.73;2.53;;;23.70;58.40;24.50;101212.00;;;;5048535;28;20552;-42
2022/09/05 08:04:33;;;;;;;2.50;2.30;;;23.70;58.20;24.50;101204.00;;;;5048901;28;20181;-42
2022/09/05 08:07:14;;;;;;;2.60;2.40;;;23.70;58.30;24.50;101212.00;;;;5048324;28;20629;-42
2022/09/05 08:09:56;;;;;;;2.30;2.20;;;23.70;58.50;24.50;101193.00;;;;5049301;28;20215;-44
2022/09/05 08:12:31;;;;;;;2.60;2.40;;;23.70;58.50;24.50;101198.00;;;;5048658;28;20216;-43
2022/09/05 08:15:13;;;;;;;2.90;2.37;;;23.70;58.70;24.60;101204.00;;;;5048740;28;20182;-40
2022/09/05 08:18:05;;;;;;;3.37;2.53;;;23.60;58.70;24.60;101207.00;;;;5048394;28;20413;-42
2022/09/05 08:20:56;;;;;;;2.50;2.30;;;23.60;58.70;24.60;101202.00;;;;5011664;28;20198;-42
2022/09/05 08:23:51;;;;;;;2.63;2.43;;;23.60;58.70;24.60;101204.00;;;;5037186;28;20586;-42
2022/09/05 08:26:28;;;;;;;2.33;2.17;;;23.70;58.90;24.60;101203.00;;;;5049826;28;20240;-43
2022/09/05 08:29:24;;;;;;;2.80;2.37;;;23.70;59.00;24.60;101202.00;;;;5049892;28;20670;-42
2022/09/05 08:31:55;;;;;;;2.60;2.40;;;23.70;59.00;24.60;101190.00;;;;5048767;28;20529;-43
2022/09/05 08:34:35;;;;;;;2.53;2.33;;;23.70;59.00;24.60;101188.00;;;;5048303;28;20151;-42
2022/09/05 08:37:01;;;;;;;2.60;2.40;;;23.70;59.00;24.60;101196.00;;;;5049224;28;20170;-41
2022/09/05 08:39:30;;;;;;;2.53;2.33;;;23.70;59.00;24.60;101192.00;;;;5048152;28;20257;-42
2022/09/05 08:42:49;;;;;;;2.40;2.20;;;23.80;59.20;24.60;101191.00;;;;5048140;28;20198;-42
2022/09/05 08:45:40;;;;;;;2.40;2.20;;;23.80;59.10;24.60;101186.00;;;;5050062;28;20174;-42
2022/09/05 08:48:53;;;;;;;4.30;2.40;;;23.80;59.10;24.60;101186.00;;;;5049143;28;20523;-43
2022/09/05 08:51:40;;;;;;;2.60;2.40;;;23.80;59.10;24.60;101179.00;;;;5050410;28;20198;-43
2022/09/05 08:54:06;;;;;;;2.23;2.13;;;23.80;59.20;24.60;101175.00;;;;5050021;28;20286;-43
2022/09/05 08:56:57;;;;;;;2.50;2.30;;;23.80;59.10;24.60;101176.00;;;;5060992;28;20253;-44
2022/09/05 08:59:27;;;;;;;2.20;2.10;;;23.90;59.20;24.60;101181.00;;;;5041856;28;20190;-42
2022/09/05 09:02:17;;;;;;;2.70;2.50;;;23.90;59.20;24.60;101172.00;;;;5047361;28;20198;-43
2022/09/05 09:05:22;;;;;;;3.67;2.30;;;23.90;59.20;24.60;101177.00;;;;5048443;28;20158;-43
2022/09/05 09:08:26;;;;;;;3.27;2.30;;;24.00;59.30;24.70;101163.00;;;;5048166;28;20158;-43
2022/09/05 09:10:58;;;;;;;2.60;2.40;;;24.00;59.40;24.70;101166.00;;;;5044721;28;20217;-42
2022/09/05 09:13:29;;;;;;;2.50;2.30;;;24.00;59.50;24.70;101161.00;;;;5047279;28;20194;-43
2022/09/05 09:16:06;;;;;;;2.57;2.37;;;24.00;59.40;24.70;101164.00;;;;5048911;28;20647;-43
2022/09/05 09:18:48;;;;;;;2.47;2.27;;;24.10;59.80;24.70;101164.00;;;;5048201;28;20284;-43
2022/09/05 09:21:38;;;;;;;2.70;2.50;;;24.10;59.70;24.70;101158.00;;;;5050399;28;20190;-44
2022/09/05 09:24:16;;;;;;;2.67;2.40;;;24.10;59.70;24.70;101162.00;;;;5070878;28;20270;-44
2022/09/05 09:27:05;;;;;;;2.50;2.30;;;24.10;59.60;24.80;101164.00;;;;5070267;28;20224;-42
2022/09/05 09:29:34;;;;;;;2.40;2.20;;;24.20;59.60;24.80;101152.00;;;;4999440;28;20186;-43
2022/09/05 09:32:12;;;;;;;2.40;2.20;;;24.20;59.50;24.80;101150.00;;;;5047257;28;20525;-43
2022/09/05 09:35:09;;;;;;;2.40;2.20;;;24.10;59.70;24.80;101158.00;;;;5047621;28;20702;-42
2022/09/05 09:38:02;;;;;;;2.20;2.10;;;24.20;59.80;24.80;101163.00;;;;5047231;28;20163;-43
2022/09/05 09:40:45;;;;;;;3.03;2.30;;;24.20;59.70;24.90;101153.00;;;;5047730;28;20186;-41
2022/09/05 09:43:26;;;;;;;2.43;2.23;;;24.30;59.60;24.90;101146.00;;;;5047752;28;20713;-41
2022/09/05 09:46:14;;;;;;;3.60;2.30;;;24.30;59.60;24.90;101154.00;;;;5047863;28;20146;-44
2022/09/05 09:49:32;;;;;;;3.60;2.37;;;24.30;59.80;24.90;101150.00;;;;5047617;28;20155;-44
2022/09/05 09:52:23;;;;;;;3.17;2.27;;;24.30;59.70;24.90;101159.00;;;;5047257;28;20564;-43
2022/09/05 09:55:32;;;;;;;2.43;2.20;;;24.30;59.50;24.90;101153.00;;;;5052802;28;20170;-42
2022/09/05 09:58:35;;;;;;;2.73;2.30;;;24.40;59.80;24.90;101154.00;;;;5048894;28;20166;-44
2022/09/05 10:01:53;;;;;;;2.40;2.20;;;24.40;59.80;25.00;101152.00;;;;5017179;28;20210;-42
2022/09/05 10:04:42;;;;;;;2.40;2.20;;;24.40;59.80;25.00;101142.00;;;;5037128;28;20194;-42
2022/09/05 10:07:35;;;;;;;2.60;2.33;;;24.50;60.10;25.00;101157.00;;;;5046377;28;20158;-41
2022/09/05 10:10:51;;;;;;;2.50;2.10;;;24.50;59.90;25.10;101147.00;;;;5046328;28;20701;-44
2022/09/05 10:14:02;;;;;;;2.70;2.50;;;24.50;59.80;25.10;101137.00;;;;5047573;28;20159;-43
2022/09/05 10:17:00;;;;;;;2.47;2.28;;;24.50;59.70;25.10;101144.00;;;;5044145;28;20194;-42
2022/09/05 10:19:55;;;;;;;3.33;2.10;;;24.60;59.80;25.10;101141.00;;;;5046682;28;20166;-42
2022/09/05 10:23:04;;;;;;;3.23;2.30;;;24.60;60.10;25.20;101141.00;;;;5046636;28;20194;-42
2022/09/05 10:26:07;;;;;;;6.07;2.47;;;24.70;60.30;25.20;101130.00;;;;5042552;28;20534;-44
2022/09/05 10:29:10;;;;;;;5.10;2.33;;;24.70;60.10;25.20;101124.00;;;;5066628;28;20166;-44
2022/09/05 10:31:55;;;;;;;6.43;2.60;;;24.70;60.40;25.20;101124.00;;;;5065852;28;20185;-42
2022/09/05 10:34:23;;;;;;;7.53;2.70;;;24.70;59.80;25.30;101124.00;;;;5066031;28;20181;-42
2022/09/05 10:37:01;;;;;;;5.75;2.50;;;24.70;59.80;25.30;101122.00;;;;5050116;28;20260;-42
2022/09/05 10:39:32;;;;;;;4.83;2.60;;;24.70;59.80;25.30;101120.00;;;;5066898;28;20161;-42
2022/09/05 10:42:13;;;;;;;5.03;2.43;;;24.70;59.80;25.30;101121.00;;;;5065248;28;20225;-43
2022/09/05 10:44:54;;;;;;;5.73;2.60;;;24.80;59.90;25.40;101117.00;;;;5065793;28;20237;-43
2022/09/05 10:47:28;;;;;;;9.55;3.00;;;24.80;59.80;25.40;101117.00;;;;5048863;28;20235;-41
2022/09/05 10:50:26;;;;;;;7.53;2.70;;;24.80;60.30;25.40;101122.00;;;;5061623;28;20193;-43
2022/09/05 10:53:34;;;;;;;4.72;2.53;;;24.90;60.50;25.40;101111.00;;;;5052997;28;20185;-42
2022/09/05 10:56:12;;;;;;;5.00;2.72;;;24.90;60.70;25.20;101113.00;;;;5038864;28;20197;-41
2022/09/05 10:59:03;;;;;;;4.55;2.70;;;25.00;60.90;25.50;101113.00;;;;5038022;28;20171;-40
2022/09/05 11:01:45;;;;;;;2.95;2.38;;;25.00;60.90;25.50;101113.00;;;;5056296;28;20277;-42
2022/09/05 11:04:43;;;;;;;5.07;2.40;;;25.00;60.30;25.60;101103.00;;;;5046377;28;20163;-42
2022/09/05 11:07:20;;;;;;;5.95;2.90;;;25.00;60.20;25.60;101101.00;;;;5046954;28;20166;-41
2022/09/05 11:10:19;;;;;;;12.07;2.88;;;25.00;60.20;25.60;101091.00;;;;5059253;28;20252;-43
2022/09/05 11:13:22;;;;;;;8.32;2.78;;;25.10;60.20;25.60;101090.00;;;;5069375;28;20166;-41
2022/09/05 11:15:58;;;;;;;8.88;2.70;;;25.10;60.20;25.70;101091.00;;;;5069448;28;20157;-47
2022/09/05 11:18:59;;;;;;;6.30;2.83;;;25.20;60.60;25.70;101090.00;;;;5070543;28;20227;-42
2022/09/05 11:21:43;;;;;;;12.02;2.70;;;25.20;59.70;25.70;101068.00;;;;5070283;28;20193;-43
2022/09/05 11:24:29;;;;;;;5.38;2.80;;;25.20;59.80;25.80;101066.00;;;;5069260;28;20234;-43
2022/09/05 11:27:33;;;;;;;7.93;2.70;;;25.20;59.80;25.80;101072.00;;;;5002769;28;20161;-42
2022/09/05 11:30:06;;;;;;;12.38;2.80;;;25.30;59.80;25.80;101008.00;;;;5069319;28;20283;-44
2022/09/05 11:33:06;;;;;;;5.93;2.65;;;25.30;59.70;25.90;101059.00;;;;5082081;28;20252;-42
2022/09/05 11:36:10;;;;;;;10.32;2.70;;;25.30;59.60;25.90;101066.00;;;;5069849;28;20704;-43
2022/09/05 11:39:06;;;;;;;6.47;2.40;;;25.30;59.40;25.90;101059.00;;;;5073181;28;20165;-43
2022/09/05 11:41:45;;;;;;;5.70;2.60;;;25.40;59.20;25.90;101047.00;;;;5070432;28;20202;-42
2022/09/05 11:44:25;;;;;;;18.17;4.05;;;25.40;58.90;26.00;101059.00;;;;5048677;28;20535;-44
2022/09/05 11:47:05;;;;;;;23.27;3.72;;;25.50;59.00;26.00;101056.00;;;;5064609;28;20886;-43
2022/09/05 11:50:10;;;;;;;23.70;3.67;;;25.50;58.90;26.00;101061.00;;;;5049654;28;20220;-43
2022/09/05 11:53:33;;;;;;;10.68;3.40;;;25.50;58.70;26.10;101061.00;;;;5050622;28;20173;-42
2022/09/05 11:56:23;;;;;;;9.25;2.85;;;25.50;58.70;26.10;101062.00;;;;5049371;28;20177;-44
2022/09/05 11:59:32;;;;;;;10.60;2.85;;;25.50;58.60;26.10;101065.00;;;;5048138;28;20254;-43
2022/09/05 12:02:13;;;;;;;10.30;2.65;;;25.60;58.80;26.20;101065.00;;;;5058818;28;20181;-42
2022/09/05 12:04:53;;;;;;;9.50;3.05;;;25.60;59.00;26.20;101063.00;;;;5069769;28;20161;-41
2022/09/05 12:07:32;;;;;;;11.57;3.00;;;25.70;59.10;26.20;101064.00;;;;5070636;28;20229;-42
2022/09/05 12:10:28;;;;;;;13.48;3.13;;;25.70;58.90;26.30;101066.00;;;;5069855;28;20236;-42
2022/09/05 12:13:20;;;;;;;9.75;2.78;;;25.80;58.70;26.30;101061.00;;;;5028317;28;20243;-44
2022/09/05 12:15:46;;;;;;;7.88;3.05;;;25.80;58.60;26.40;101058.00;;;;5068969;28;20209;-44
2022/09/05 12:18:34;;;;;;;13.20;3.08;;;25.80;58.70;26.40;101065.00;;;;5070967;28;20243;-43
2022/09/05 12:21:24;;;;;;;4.28;2.70;;;25.80;58.50;26.40;101059.00;;;;5073536;28;20194;-43
2022/09/05 12:24:02;;;;;;;5.65;2.78;;;25.90;58.40;26.50;101038.00;;;;5079159;28;20198;-41